sensor_id;sensor_type;location;lat;lon;timestamp;temperature;humidity
10911;DHT22;5508;49.150;11.030;2023-05-19T00:01:43;10.50;64.00
10911;DHT22;5508;49.150;11.030;2023-05-19T00:04:44;10.50;65.50
10911;DHT22;5508;49.150;11.030;2023-05-19T00:07:48;10.50;64.70
10911;DHT22;5508;49.150;11.030;2023-05-19T00:10:51;10.50;65.20
10911;DHT22;5508;49.150;11.030;2023-05-19T00:13:53;10.50;65.70
10911;DHT22;5508;49.150;11.030;2023-05-19T00:16:54;10.40;66.10
10911;DHT22;5508;49.150;11.030;2023-05-19T00:19:57;10.40;66.40
10911;DHT22;5508;49.150;11.030;2023-05-19T00:22:58;10.30;67.10
10911;DHT22;5508;49.150;11.030;2023-05-19T00:25:58;10.30;68.70
10911;DHT22;5508;49.150;11.030;2023-05-19T00:28:59;10.30;68.30
10911;DHT22;5508;49.150;11.030;2023-05-19T00:32:00;10.30;68.50
10911;DHT22;5508;49.150;11.030;2023-05-19T00:35:00;10.30;69.80
10911;DHT22;5508;49.150;11.030;2023-05-19T00:38:01;10.30;69.90
10911;DHT22;5508;49.150;11.030;2023-05-19T00:41:03;10.30;71.20
10911;DHT22;5508;49.150;11.030;2023-05-19T00:44:05;10.30;71.50
10911;DHT22;5508;49.150;11.030;2023-05-19T00:47:06;10.20;71.30
10911;DHT22;5508;49.150;11.030;2023-05-19T00:50:07;10.20;72.30
10911;DHT22;5508;49.150;11.030;2023-05-19T00:53:08;10.20;72.10
10911;DHT22;5508;49.150;11.030;2023-05-19T00:56:08;10.10;72.30
10911;DHT22;5508;49.150;11.030;2023-05-19T00:59:09;10.10;73.60
10911;DHT22;5508;49.150;11.030;2023-05-19T01:02:10;10.10;74.30
10911;DHT22;5508;49.150;11.030;2023-05-19T01:05:11;10.00;77.30
10911;DHT22;5508;49.150;11.030;2023-05-19T01:08:12;10.00;76.80
10911;DHT22;5508;49.150;11.030;2023-05-19T01:11:13;9.90;74.80
10911;DHT22;5508;49.150;11.030;2023-05-19T01:14:14;9.80;78.10
10911;DHT22;5508;49.150;11.030;2023-05-19T01:17:19;9.70;78.30
10911;DHT22;5508;49.150;11.030;2023-05-19T01:20:53;9.60;79.10
10911;DHT22;5508;49.150;11.030;2023-05-19T01:24:17;9.50;79.30
10911;DHT22;5508;49.150;11.030;2023-05-19T01:30:55;9.40;78.90
10911;DHT22;5508;49.150;11.030;2023-05-19T01:33:56;9.20;81.00
10911;DHT22;5508;49.150;11.030;2023-05-19T01:36:59;9.10;81.70
10911;DHT22;5508;49.150;11.030;2023-05-19T01:40:00;9.10;81.80
10911;DHT22;5508;49.150;11.030;2023-05-19T01:43:01;9.00;81.50
10911;DHT22;5508;49.150;11.030;2023-05-19T01:46:02;9.00;81.30
10911;DHT22;5508;49.150;11.030;2023-05-19T01:49:04;9.00;83.60
10911;DHT22;5508;49.150;11.030;2023-05-19T01:52:05;8.90;82.90
10911;DHT22;5508;49.150;11.030;2023-05-19T01:55:07;8.90;84.80
10911;DHT22;5508;49.150;11.030;2023-05-19T01:58:30;8.80;83.40
10911;DHT22;5508;49.150;11.030;2023-05-19T02:01:51;8.80;84.20
10911;DHT22;5508;49.150;11.030;2023-05-19T02:05:01;8.60;84.90
10911;DHT22;5508;49.150;11.030;2023-05-19T02:11:41;8.40;87.70
10911;DHT22;5508;49.150;11.030;2023-05-19T02:17:50;8.20;89.70
10911;DHT22;5508;49.150;11.030;2023-05-19T02:20:53;8.10;89.30
10911;DHT22;5508;49.150;11.030;2023-05-19T02:23:54;8.10;90.30
10911;DHT22;5508;49.150;11.030;2023-05-19T02:26:54;7.90;90.50
10911;DHT22;5508;49.150;11.030;2023-05-19T02:29:55;7.90;90.80
10911;DHT22;5508;49.150;11.030;2023-05-19T02:32:56;7.80;91.00
10911;DHT22;5508;49.150;11.030;2023-05-19T02:35:56;7.80;91.70
10911;DHT22;5508;49.150;11.030;2023-05-19T02:38:57;7.60;92.90
10911;DHT22;5508;49.150;11.030;2023-05-19T02:42:00;7.60;95.00
10911;DHT22;5508;49.150;11.030;2023-05-19T02:45:00;7.50;94.30
10911;DHT22;5508;49.150;11.030;2023-05-19T02:48:01;7.40;94.70
10911;DHT22;5508;49.150;11.030;2023-05-19T02:51:02;7.30;94.60
10911;DHT22;5508;49.150;11.030;2023-05-19T02:54:02;7.10;95.00
10911;DHT22;5508;49.150;11.030;2023-05-19T02:57:03;7.00;95.90
10911;DHT22;5508;49.150;11.030;2023-05-19T03:00:04;6.90;96.00
10911;DHT22;5508;49.150;11.030;2023-05-19T03:03:06;6.90;96.70
10911;DHT22;5508;49.150;11.030;2023-05-19T03:06:06;6.90;97.80
10911;DHT22;5508;49.150;11.030;2023-05-19T03:09:07;6.80;97.80
10911;DHT22;5508;49.150;11.030;2023-05-19T03:12:08;6.80;99.70
10911;DHT22;5508;49.150;11.030;2023-05-19T03:15:09;6.70;99.30
10911;DHT22;5508;49.150;11.030;2023-05-19T03:18:12;6.60;99.40
10911;DHT22;5508;49.150;11.030;2023-05-19T03:21:13;6.60;98.70
10911;DHT22;5508;49.150;11.030;2023-05-19T03:24:13;6.50;99.00
10911;DHT22;5508;49.150;11.030;2023-05-19T03:27:14;6.50;99.60
10911;DHT22;5508;49.150;11.030;2023-05-19T03:30:16;6.50;99.90
10911;DHT22;5508;49.150;11.030;2023-05-19T03:33:17;6.40;99.50
10911;DHT22;5508;49.150;11.030;2023-05-19T03:36:18;6.30;99.80
10911;DHT22;5508;49.150;11.030;2023-05-19T03:39:18;6.40;99.80
10911;DHT22;5508;49.150;11.030;2023-05-19T03:42:19;6.30;99.80
10911;DHT22;5508;49.150;11.030;2023-05-19T03:45:20;6.30;99.90
10911;DHT22;5508;49.150;11.030;2023-05-19T03:48:20;6.30;99.60
10911;DHT22;5508;49.150;11.030;2023-05-19T03:51:21;6.30;99.90
10911;DHT22;5508;49.150;11.030;2023-05-19T03:54:21;6.30;99.90
10911;DHT22;5508;49.150;11.030;2023-05-19T03:57:22;6.30;99.90
10911;DHT22;5508;49.150;11.030;2023-05-19T04:00:23;6.40;99.90
10911;DHT22;5508;49.150;11.030;2023-05-19T04:03:24;6.40;99.80
10911;DHT22;5508;49.150;11.030;2023-05-19T04:06:27;6.50;99.80
10911;DHT22;5508;49.150;11.030;2023-05-19T04:09:28;6.50;99.10
10911;DHT22;5508;49.150;11.030;2023-05-19T04:12:31;6.60;99.50
10911;DHT22;5508;49.150;11.030;2023-05-19T04:15:32;6.60;99.00
10911;DHT22;5508;49.150;11.030;2023-05-19T04:18:33;6.60;99.90
10911;DHT22;5508;49.150;11.030;2023-05-19T04:21:33;6.60;99.10
10911;DHT22;5508;49.150;11.030;2023-05-19T04:24:34;6.60;99.00
10911;DHT22;5508;49.150;11.030;2023-05-19T04:27:35;6.70;99.90
10911;DHT22;5508;49.150;11.030;2023-05-19T04:30:38;6.80;99.70
10911;DHT22;5508;49.150;11.030;2023-05-19T04:33:39;6.90;98.40
10911;DHT22;5508;49.150;11.030;2023-05-19T04:36:40;7.00;98.20
10911;DHT22;5508;49.150;11.030;2023-05-19T04:39:41;7.20;97.70
10911;DHT22;5508;49.150;11.030;2023-05-19T04:42:43;7.30;98.00
10911;DHT22;5508;49.150;11.030;2023-05-19T04:45:45;7.30;95.20
10911;DHT22;5508;49.150;11.030;2023-05-19T04:48:46;7.30;94.50
10911;DHT22;5508;49.150;11.030;2023-05-19T04:51:47;7.50;96.00
10911;DHT22;5508;49.150;11.030;2023-05-19T04:54:49;7.50;95.50
10911;DHT22;5508;49.150;11.030;2023-05-19T04:57:50;7.60;94.70
10911;DHT22;5508;49.150;11.030;2023-05-19T05:00:51;7.80;91.90
10911;DHT22;5508;49.150;11.030;2023-05-19T05:03:53;7.80;92.80
10911;DHT22;5508;49.150;11.030;2023-05-19T05:06:54;7.90;91.50
10911;DHT22;5508;49.150;11.030;2023-05-19T05:09:55;8.00;89.50
10911;DHT22;5508;49.150;11.030;2023-05-19T05:12:55;8.00;91.30
10911;DHT22;5508;49.150;11.030;2023-05-19T05:15:56;8.20;91.20
10911;DHT22;5508;49.150;11.030;2023-05-19T05:18:58;8.30;88.70
10911;DHT22;5508;49.150;11.030;2023-05-19T05:21:59;8.40;88.30
10911;DHT22;5508;49.150;11.030;2023-05-19T05:25:00;8.60;86.60
10911;DHT22;5508;49.150;11.030;2023-05-19T05:28:01;8.60;85.20
10911;DHT22;5508;49.150;11.030;2023-05-19T05:31:05;8.80;84.80
10911;DHT22;5508;49.150;11.030;2023-05-19T05:34:05;8.90;84.30
10911;DHT22;5508;49.150;11.030;2023-05-19T05:37:06;9.00;84.50
10911;DHT22;5508;49.150;11.030;2023-05-19T05:40:07;9.20;84.30
10911;DHT22;5508;49.150;11.030;2023-05-19T05:43:08;9.30;83.00
10911;DHT22;5508;49.150;11.030;2023-05-19T05:46:08;9.50;83.20
10911;DHT22;5508;49.150;11.030;2023-05-19T05:49:09;9.60;80.10
10911;DHT22;5508;49.150;11.030;2023-05-19T05:52:11;9.60;81.20
10911;DHT22;5508;49.150;11.030;2023-05-19T05:55:13;9.70;81.70
10911;DHT22;5508;49.150;11.030;2023-05-19T05:58:14;9.90;82.80
10911;DHT22;5508;49.150;11.030;2023-05-19T06:01:16;10.10;79.70
10911;DHT22;5508;49.150;11.030;2023-05-19T06:04:17;10.10;77.20
10911;DHT22;5508;49.150;11.030;2023-05-19T06:07:17;10.20;77.40
10911;DHT22;5508;49.150;11.030;2023-05-19T06:10:18;10.40;76.10
10911;DHT22;5508;49.150;11.030;2023-05-19T06:13:19;10.40;74.60
10911;DHT22;5508;49.150;11.030;2023-05-19T06:16:23;10.40;75.40
10911;DHT22;5508;49.150;11.030;2023-05-19T06:19:23;10.50;76.20
10911;DHT22;5508;49.150;11.030;2023-05-19T06:22:24;10.80;74.60
10911;DHT22;5508;49.150;11.030;2023-05-19T06:25:25;10.70;72.00
10911;DHT22;5508;49.150;11.030;2023-05-19T06:28:25;10.70;73.60
10911;DHT22;5508;49.150;11.030;2023-05-19T06:31:28;10.60;73.10
10911;DHT22;5508;49.150;11.030;2023-05-19T06:34:28;10.70;72.30
10911;DHT22;5508;49.150;11.030;2023-05-19T06:37:29;10.80;73.00
10911;DHT22;5508;49.150;11.030;2023-05-19T06:40:29;11.00;72.70
10911;DHT22;5508;49.150;11.030;2023-05-19T06:43:30;11.10;72.70
10911;DHT22;5508;49.150;11.030;2023-05-19T06:46:31;11.10;71.00
10911;DHT22;5508;49.150;11.030;2023-05-19T06:49:31;11.20;72.30
10911;DHT22;5508;49.150;11.030;2023-05-19T06:52:32;11.40;71.10
10911;DHT22;5508;49.150;11.030;2023-05-19T06:55:32;11.50;71.10
10911;DHT22;5508;49.150;11.030;2023-05-19T06:58:33;11.60;69.50
10911;DHT22;5508;49.150;11.030;2023-05-19T07:01:33;11.70;69.50
10911;DHT22;5508;49.150;11.030;2023-05-19T07:04:35;11.80;68.70
10911;DHT22;5508;49.150;11.030;2023-05-19T07:07:36;11.90;67.80
10911;DHT22;5508;49.150;11.030;2023-05-19T07:10:36;12.10;66.90
10911;DHT22;5508;49.150;11.030;2023-05-19T07:13:37;12.40;67.90
10911;DHT22;5508;49.150;11.030;2023-05-19T07:16:37;12.60;65.80
10911;DHT22;5508;49.150;11.030;2023-05-19T07:19:38;12.70;66.60
10911;DHT22;5508;49.150;11.030;2023-05-19T07:22:38;12.90;64.30
10911;DHT22;5508;49.150;11.030;2023-05-19T07:25:39;13.00;66.50
10911;DHT22;5508;49.150;11.030;2023-05-19T07:28:40;13.00;64.70
10911;DHT22;5508;49.150;11.030;2023-05-19T07:31:42;13.00;63.90
10911;DHT22;5508;49.150;11.030;2023-05-19T07:34:42;13.00;64.60
10911;DHT22;5508;49.150;11.030;2023-05-19T07:37:43;12.90;64.20
10911;DHT22;5508;49.150;11.030;2023-05-19T07:40:43;12.80;62.90
10911;DHT22;5508;49.150;11.030;2023-05-19T07:43:44;12.90;65.50
10911;DHT22;5508;49.150;11.030;2023-05-19T07:46:45;12.90;65.30
10911;DHT22;5508;49.150;11.030;2023-05-19T07:49:46;12.90;64.90
10911;DHT22;5508;49.150;11.030;2023-05-19T07:52:46;13.10;63.90
10911;DHT22;5508;49.150;11.030;2023-05-19T07:55:47;13.50;62.20
10911;DHT22;5508;49.150;11.030;2023-05-19T07:58:48;13.50;61.50
10911;DHT22;5508;49.150;11.030;2023-05-19T08:01:49;13.80;62.60
10911;DHT22;5508;49.150;11.030;2023-05-19T08:04:49;13.70;59.90
10911;DHT22;5508;49.150;11.030;2023-05-19T08:07:51;13.60;59.40
10911;DHT22;5508;49.150;11.030;2023-05-19T08:10:51;13.70;60.20
10911;DHT22;5508;49.150;11.030;2023-05-19T08:13:52;13.80;59.20
10911;DHT22;5508;49.150;11.030;2023-05-19T08:16:52;14.00;58.60
10911;DHT22;5508;49.150;11.030;2023-05-19T08:19:53;13.80;59.70
10911;DHT22;5508;49.150;11.030;2023-05-19T08:22:54;13.80;60.40
10911;DHT22;5508;49.150;11.030;2023-05-19T08:25:54;13.80;61.80
10911;DHT22;5508;49.150;11.030;2023-05-19T08:28:55;13.80;59.40
10911;DHT22;5508;49.150;11.030;2023-05-19T08:31:56;14.00;60.20
10911;DHT22;5508;49.150;11.030;2023-05-19T08:34:57;14.20;60.90
10911;DHT22;5508;49.150;11.030;2023-05-19T08:37:58;14.20;60.30
10911;DHT22;5508;49.150;11.030;2023-05-19T08:40:58;14.30;57.00
10911;DHT22;5508;49.150;11.030;2023-05-19T08:43:59;14.40;59.40
10911;DHT22;5508;49.150;11.030;2023-05-19T08:47:02;14.40;57.60
10911;DHT22;5508;49.150;11.030;2023-05-19T08:50:05;14.40;57.30
10911;DHT22;5508;49.150;11.030;2023-05-19T08:53:12;14.10;57.20
10911;DHT22;5508;49.150;11.030;2023-05-19T08:56:21;13.90;61.40
10911;DHT22;5508;49.150;11.030;2023-05-19T08:59:23;13.90;59.30
10911;DHT22;5508;49.150;11.030;2023-05-19T09:02:24;14.00;59.20
10911;DHT22;5508;49.150;11.030;2023-05-19T09:05:25;13.90;58.60
10911;DHT22;5508;49.150;11.030;2023-05-19T09:08:25;14.40;61.70
10911;DHT22;5508;49.150;11.030;2023-05-19T09:11:27;14.50;58.10
10911;DHT22;5508;49.150;11.030;2023-05-19T09:14:27;14.60;59.10
10911;DHT22;5508;49.150;11.030;2023-05-19T09:17:28;14.80;56.80
10911;DHT22;5508;49.150;11.030;2023-05-19T09:20:29;15.00;56.20
10911;DHT22;5508;49.150;11.030;2023-05-19T09:23:31;14.90;58.40
10911;DHT22;5508;49.150;11.030;2023-05-19T09:29:38;14.50;55.70
10911;DHT22;5508;49.150;11.030;2023-05-19T09:32:38;14.30;60.00
10911;DHT22;5508;49.150;11.030;2023-05-19T09:35:39;14.40;60.30
10911;DHT22;5508;49.150;11.030;2023-05-19T09:38:39;14.70;58.40
10911;DHT22;5508;49.150;11.030;2023-05-19T09:41:41;14.60;58.70
10911;DHT22;5508;49.150;11.030;2023-05-19T09:44:42;14.60;59.20
10911;DHT22;5508;49.150;11.030;2023-05-19T09:47:42;14.70;60.50
10911;DHT22;5508;49.150;11.030;2023-05-19T09:50:43;15.00;58.60
10911;DHT22;5508;49.150;11.030;2023-05-19T09:53:46;15.00;56.20
10911;DHT22;5508;49.150;11.030;2023-05-19T09:57:02;14.90;58.50
10911;DHT22;5508;49.150;11.030;2023-05-19T10:00:08;15.10;58.00
10911;DHT22;5508;49.150;11.030;2023-05-19T10:03:15;15.00;56.00
10911;DHT22;5508;49.150;11.030;2023-05-19T10:06:17;14.90;57.00
10911;DHT22;5508;49.150;11.030;2023-05-19T10:09:26;14.70;58.50
10911;DHT22;5508;49.150;11.030;2023-05-19T10:12:27;14.70;59.30
10911;DHT22;5508;49.150;11.030;2023-05-19T10:15:29;15.00;62.00
10911;DHT22;5508;49.150;11.030;2023-05-19T10:18:31;15.20;58.10
10911;DHT22;5508;49.150;11.030;2023-05-19T10:21:32;15.20;56.80
10911;DHT22;5508;49.150;11.030;2023-05-19T10:24:33;15.20;57.80
10911;DHT22;5508;49.150;11.030;2023-05-19T10:27:38;15.00;56.80
10911;DHT22;5508;49.150;11.030;2023-05-19T10:30:48;14.50;56.90
10911;DHT22;5508;49.150;11.030;2023-05-19T10:40:40;14.20;59.30
10911;DHT22;5508;49.150;11.030;2023-05-19T10:44:02;14.50;61.80
10911;DHT22;5508;49.150;11.030;2023-05-19T10:47:07;14.80;58.80
10911;DHT22;5508;49.150;11.030;2023-05-19T10:50:11;14.90;57.10
10911;DHT22;5508;49.150;11.030;2023-05-19T10:53:15;15.20;56.10
10911;DHT22;5508;49.150;11.030;2023-05-19T10:56:33;15.40;55.00
10911;DHT22;5508;49.150;11.030;2023-05-19T10:59:36;15.70;56.50
10911;DHT22;5508;49.150;11.030;2023-05-19T11:02:42;15.70;56.80
10911;DHT22;5508;49.150;11.030;2023-05-19T11:05:43;16.30;55.60
10911;DHT22;5508;49.150;11.030;2023-05-19T11:09:08;16.50;56.00
10911;DHT22;5508;49.150;11.030;2023-05-19T11:12:09;16.50;52.70
10911;DHT22;5508;49.150;11.030;2023-05-19T11:15:14;16.40;53.30
10911;DHT22;5508;49.150;11.030;2023-05-19T11:18:15;16.60;52.30
10911;DHT22;5508;49.150;11.030;2023-05-19T11:21:18;16.20;52.60
10911;DHT22;5508;49.150;11.030;2023-05-19T11:27:45;16.10;53.80
10911;DHT22;5508;49.150;11.030;2023-05-19T11:30:47;15.90;55.60
10911;DHT22;5508;49.150;11.030;2023-05-19T11:33:51;15.60;55.70
10911;DHT22;5508;49.150;11.030;2023-05-19T11:36:52;15.90;53.70
10911;DHT22;5508;49.150;11.030;2023-05-19T11:39:52;16.00;54.50
10911;DHT22;5508;49.150;11.030;2023-05-19T11:42:53;16.10;53.70
10911;DHT22;5508;49.150;11.030;2023-05-19T11:45:54;16.40;52.80
10911;DHT22;5508;49.150;11.030;2023-05-19T11:48:55;16.50;55.60
10911;DHT22;5508;49.150;11.030;2023-05-19T11:51:56;16.90;53.30
10911;DHT22;5508;49.150;11.030;2023-05-19T11:55:00;17.10;53.10
10911;DHT22;5508;49.150;11.030;2023-05-19T11:58:02;16.80;52.90
10911;DHT22;5508;49.150;11.030;2023-05-19T12:01:03;16.50;51.90
10911;DHT22;5508;49.150;11.030;2023-05-19T12:04:07;16.70;53.30
10911;DHT22;5508;49.150;11.030;2023-05-19T12:07:12;17.60;52.40
10911;DHT22;5508;49.150;11.030;2023-05-19T12:10:14;17.80;50.30
10911;DHT22;5508;49.150;11.030;2023-05-19T12:13:15;17.40;49.20
10911;DHT22;5508;49.150;11.030;2023-05-19T12:16:19;17.10;50.50
10911;DHT22;5508;49.150;11.030;2023-05-19T12:19:22;17.10;53.30
10911;DHT22;5508;49.150;11.030;2023-05-19T12:22:24;17.30;53.20
10911;DHT22;5508;49.150;11.030;2023-05-19T12:25:25;17.40;52.60
10911;DHT22;5508;49.150;11.030;2023-05-19T12:28:29;17.30;52.40
10911;DHT22;5508;49.150;11.030;2023-05-19T12:31:30;17.10;51.20
10911;DHT22;5508;49.150;11.030;2023-05-19T12:34:34;17.10;52.10
10911;DHT22;5508;49.150;11.030;2023-05-19T12:37:39;17.30;51.20
10911;DHT22;5508;49.150;11.030;2023-05-19T12:40:41;18.10;50.70
10911;DHT22;5508;49.150;11.030;2023-05-19T12:43:42;18.40;50.50
10911;DHT22;5508;49.150;11.030;2023-05-19T12:46:43;18.40;47.80
10911;DHT22;5508;49.150;11.030;2023-05-19T12:53:00;17.70;50.70
10911;DHT22;5508;49.150;11.030;2023-05-19T12:56:12;17.60;53.20
10911;DHT22;5508;49.150;11.030;2023-05-19T12:59:20;17.70;52.60
10911;DHT22;5508;49.150;11.030;2023-05-19T13:02:23;17.70;51.90
10911;DHT22;5508;49.150;11.030;2023-05-19T13:05:24;17.70;53.10
10911;DHT22;5508;49.150;11.030;2023-05-19T13:08:24;17.80;51.40
10911;DHT22;5508;49.150;11.030;2023-05-19T13:11:27;17.90;49.40
10911;DHT22;5508;49.150;11.030;2023-05-19T13:14:28;17.80;51.10
10911;DHT22;5508;49.150;11.030;2023-05-19T13:17:28;18.00;49.80
10911;DHT22;5508;49.150;11.030;2023-05-19T13:20:29;18.20;51.70
10911;DHT22;5508;49.150;11.030;2023-05-19T13:23:30;17.90;49.70
10911;DHT22;5508;49.150;11.030;2023-05-19T13:26:30;17.70;50.70
10911;DHT22;5508;49.150;11.030;2023-05-19T13:29:31;17.60;51.80
10911;DHT22;5508;49.150;11.030;2023-05-19T13:32:32;17.70;52.30
10911;DHT22;5508;49.150;11.030;2023-05-19T13:35:32;17.60;51.10
10911;DHT22;5508;49.150;11.030;2023-05-19T13:38:36;17.40;51.70
10911;DHT22;5508;49.150;11.030;2023-05-19T13:41:36;17.30;52.80
10911;DHT22;5508;49.150;11.030;2023-05-19T13:44:37;17.40;51.70
10911;DHT22;5508;49.150;11.030;2023-05-19T13:47:38;17.20;51.40
10911;DHT22;5508;49.150;11.030;2023-05-19T13:50:38;17.20;52.80
10911;DHT22;5508;49.150;11.030;2023-05-19T13:53:39;17.30;51.60
10911;DHT22;5508;49.150;11.030;2023-05-19T13:56:40;17.40;51.50
10911;DHT22;5508;49.150;11.030;2023-05-19T13:59:43;17.60;51.00
10911;DHT22;5508;49.150;11.030;2023-05-19T14:02:44;17.50;50.30
10911;DHT22;5508;49.150;11.030;2023-05-19T14:05:46;17.30;51.70
10911;DHT22;5508;49.150;11.030;2023-05-19T14:08:47;17.30;52.70
10911;DHT22;5508;49.150;11.030;2023-05-19T14:11:47;17.20;51.40
10911;DHT22;5508;49.150;11.030;2023-05-19T14:14:48;17.20;55.10
10911;DHT22;5508;49.150;11.030;2023-05-19T14:17:49;17.40;52.40
10911;DHT22;5508;49.150;11.030;2023-05-19T14:20:49;17.50;52.10
10911;DHT22;5508;49.150;11.030;2023-05-19T14:23:50;17.40;51.80
10911;DHT22;5508;49.150;11.030;2023-05-19T14:26:51;17.40;52.40
10911;DHT22;5508;49.150;11.030;2023-05-19T14:29:52;17.60;52.70
10911;DHT22;5508;49.150;11.030;2023-05-19T14:32:53;17.70;53.50
10911;DHT22;5508;49.150;11.030;2023-05-19T14:35:53;17.80;53.10
10911;DHT22;5508;49.150;11.030;2023-05-19T14:38:55;17.90;50.40
10911;DHT22;5508;49.150;11.030;2023-05-19T14:41:56;18.00;52.20
10911;DHT22;5508;49.150;11.030;2023-05-19T14:48:00;18.70;51.70
10911;DHT22;5508;49.150;11.030;2023-05-19T14:51:01;18.70;48.70
10911;DHT22;5508;49.150;11.030;2023-05-19T14:54:01;18.40;49.30
10911;DHT22;5508;49.150;11.030;2023-05-19T14:57:02;18.40;49.20
10911;DHT22;5508;49.150;11.030;2023-05-19T15:00:04;18.40;51.40
10911;DHT22;5508;49.150;11.030;2023-05-19T15:03:05;18.70;52.20
10911;DHT22;5508;49.150;11.030;2023-05-19T15:06:09;19.00;52.20
10911;DHT22;5508;49.150;11.030;2023-05-19T15:09:10;19.10;47.80
10911;DHT22;5508;49.150;11.030;2023-05-19T15:12:13;18.90;51.40
10911;DHT22;5508;49.150;11.030;2023-05-19T15:15:14;19.10;49.30
10911;DHT22;5508;49.150;11.030;2023-05-19T15:18:15;19.50;47.00
10911;DHT22;5508;49.150;11.030;2023-05-19T15:21:17;19.50;48.40
10911;DHT22;5508;49.150;11.030;2023-05-19T15:24:18;19.70;48.20
10911;DHT22;5508;49.150;11.030;2023-05-19T15:27:19;19.70;48.40
10911;DHT22;5508;49.150;11.030;2023-05-19T15:30:20;19.30;45.60
10911;DHT22;5508;49.150;11.030;2023-05-19T15:33:20;19.20;48.10
10911;DHT22;5508;49.150;11.030;2023-05-19T15:36:21;18.90;48.40
10911;DHT22;5508;49.150;11.030;2023-05-19T15:39:21;18.80;51.70
10911;DHT22;5508;49.150;11.030;2023-05-19T15:42:22;18.70;49.90
10911;DHT22;5508;49.150;11.030;2023-05-19T15:48:24;18.10;51.10
10911;DHT22;5508;49.150;11.030;2023-05-19T15:51:28;17.90;49.50
10911;DHT22;5508;49.150;11.030;2023-05-19T15:54:29;18.00;51.20
10911;DHT22;5508;49.150;11.030;2023-05-19T15:57:29;17.90;51.20
10911;DHT22;5508;49.150;11.030;2023-05-19T16:00:30;17.80;52.20
10911;DHT22;5508;49.150;11.030;2023-05-19T16:03:30;17.80;51.60
10911;DHT22;5508;49.150;11.030;2023-05-19T16:06:31;17.80;51.00
10911;DHT22;5508;49.150;11.030;2023-05-19T16:09:32;17.80;51.80
10911;DHT22;5508;49.150;11.030;2023-05-19T16:12:32;17.80;52.20
10911;DHT22;5508;49.150;11.030;2023-05-19T16:15:33;17.80;51.40
10911;DHT22;5508;49.150;11.030;2023-05-19T16:18:34;17.70;53.40
10911;DHT22;5508;49.150;11.030;2023-05-19T16:21:34;17.60;51.10
10911;DHT22;5508;49.150;11.030;2023-05-19T16:24:35;17.50;52.30
10911;DHT22;5508;49.150;11.030;2023-05-19T16:27:35;17.50;53.10
10911;DHT22;5508;49.150;11.030;2023-05-19T16:30:36;17.50;52.80
10911;DHT22;5508;49.150;11.030;2023-05-19T16:33:37;17.50;53.20
10911;DHT22;5508;49.150;11.030;2023-05-19T16:36:37;17.40;53.90
10911;DHT22;5508;49.150;11.030;2023-05-19T16:39:38;17.50;52.50
10911;DHT22;5508;49.150;11.030;2023-05-19T16:42:39;17.30;50.60
10911;DHT22;5508;49.150;11.030;2023-05-19T16:45:40;17.20;52.30
10911;DHT22;5508;49.150;11.030;2023-05-19T16:48:41;17.40;53.80
10911;DHT22;5508;49.150;11.030;2023-05-19T16:51:41;17.40;52.80
10911;DHT22;5508;49.150;11.030;2023-05-19T16:54:42;17.10;53.20
10911;DHT22;5508;49.150;11.030;2023-05-19T16:57:42;16.90;54.30
10911;DHT22;5508;49.150;11.030;2023-05-19T17:00:43;16.80;55.40
10911;DHT22;5508;49.150;11.030;2023-05-19T17:03:43;16.70;56.10
10911;DHT22;5508;49.150;11.030;2023-05-19T17:06:44;16.70;56.20
10911;DHT22;5508;49.150;11.030;2023-05-19T17:09:47;16.60;55.80
10911;DHT22;5508;49.150;11.030;2023-05-19T17:12:48;16.50;56.50
10911;DHT22;5508;49.150;11.030;2023-05-19T17:15:50;16.60;56.70
10911;DHT22;5508;49.150;11.030;2023-05-19T17:18:51;16.60;57.80
10911;DHT22;5508;49.150;11.030;2023-05-19T17:21:52;16.50;56.90
10911;DHT22;5508;49.150;11.030;2023-05-19T17:24:53;16.50;56.80
10911;DHT22;5508;49.150;11.030;2023-05-19T17:27:53;16.40;57.70
10911;DHT22;5508;49.150;11.030;2023-05-19T17:30:55;16.40;57.50
10911;DHT22;5508;49.150;11.030;2023-05-19T17:33:55;16.30;58.20
10911;DHT22;5508;49.150;11.030;2023-05-19T17:36:56;16.20;59.00
10911;DHT22;5508;49.150;11.030;2023-05-19T17:42:57;16.10;58.00
10911;DHT22;5508;49.150;11.030;2023-05-19T17:45:58;16.10;59.40
10911;DHT22;5508;49.150;11.030;2023-05-19T17:48:59;16.00;59.80
10911;DHT22;5508;49.150;11.030;2023-05-19T17:52:00;15.90;59.80
10911;DHT22;5508;49.150;11.030;2023-05-19T17:55:01;15.90;59.60
10911;DHT22;5508;49.150;11.030;2023-05-19T17:58:02;15.90;60.00
10911;DHT22;5508;49.150;11.030;2023-05-19T18:01:03;15.80;60.40
10911;DHT22;5508;49.150;11.030;2023-05-19T18:04:04;15.80;60.50
10911;DHT22;5508;49.150;11.030;2023-05-19T18:07:05;15.70;61.00
10911;DHT22;5508;49.150;11.030;2023-05-19T18:10:08;15.70;61.50
10911;DHT22;5508;49.150;11.030;2023-05-19T18:13:10;15.70;61.70
10911;DHT22;5508;49.150;11.030;2023-05-19T18:16:13;15.60;61.80
10911;DHT22;5508;49.150;11.030;2023-05-19T18:19:13;15.60;62.60
10911;DHT22;5508;49.150;11.030;2023-05-19T18:22:14;15.50;62.80
10911;DHT22;5508;49.150;11.030;2023-05-19T18:25:15;15.50;63.20
10911;DHT22;5508;49.150;11.030;2023-05-19T18:28:17;15.40;63.80
10911;DHT22;5508;49.150;11.030;2023-05-19T18:31:18;15.30;64.70
10911;DHT22;5508;49.150;11.030;2023-05-19T18:34:19;15.30;64.80
10911;DHT22;5508;49.150;11.030;2023-05-19T18:37:19;15.20;65.30
10911;DHT22;5508;49.150;11.030;2023-05-19T18:40:20;15.10;65.60
10911;DHT22;5508;49.150;11.030;2023-05-19T18:43:20;15.10;66.40
10911;DHT22;5508;49.150;11.030;2023-05-19T18:46:21;15.00;66.10
10911;DHT22;5508;49.150;11.030;2023-05-19T18:49:22;14.90;67.00
10911;DHT22;5508;49.150;11.030;2023-05-19T18:52:25;14.90;67.60
10911;DHT22;5508;49.150;11.030;2023-05-19T18:55:27;14.90;67.90
10911;DHT22;5508;49.150;11.030;2023-05-19T18:58:28;14.80;68.90
10911;DHT22;5508;49.150;11.030;2023-05-19T19:01:28;14.70;68.80
10911;DHT22;5508;49.150;11.030;2023-05-19T19:04:29;14.70;68.60
10911;DHT22;5508;49.150;11.030;2023-05-19T19:07:30;14.60;69.20
10911;DHT22;5508;49.150;11.030;2023-05-19T19:10:31;14.60;69.40
10911;DHT22;5508;49.150;11.030;2023-05-19T19:13:38;14.50;69.80
10911;DHT22;5508;49.150;11.030;2023-05-19T19:16:39;14.40;70.80
10911;DHT22;5508;49.150;11.030;2023-05-19T19:19:39;14.40;69.70
10911;DHT22;5508;49.150;11.030;2023-05-19T19:22:40;14.40;70.40
10911;DHT22;5508;49.150;11.030;2023-05-19T19:25:41;14.30;70.50
10911;DHT22;5508;49.150;11.030;2023-05-19T19:28:42;14.20;70.50
10911;DHT22;5508;49.150;11.030;2023-05-19T19:31:43;14.20;70.60
10911;DHT22;5508;49.150;11.030;2023-05-19T19:34:43;14.10;71.10
10911;DHT22;5508;49.150;11.030;2023-05-19T19:37:44;14.10;71.40
10911;DHT22;5508;49.150;11.030;2023-05-19T19:40:46;14.00;71.80
10911;DHT22;5508;49.150;11.030;2023-05-19T19:43:46;14.00;71.90
10911;DHT22;5508;49.150;11.030;2023-05-19T19:46:47;13.90;72.70
10911;DHT22;5508;49.150;11.030;2023-05-19T19:49:48;13.90;72.60